createdAt,value
2022-08-23T00:02:02.710Z,76.83
2022-08-23T00:04:37.284Z,76.29
2022-08-23T00:07:09.762Z,77.24
2022-08-23T00:09:39.365Z,76.11
2022-08-23T00:12:11.949Z,76.51
2022-08-23T00:14:41.987Z,77.12
2022-08-23T00:17:13.213Z,76.14
2022-08-23T00:19:44.486Z,73.72
2022-08-23T00:22:14.476Z,73.13
2022-08-23T00:24:45.500Z,72.81
2022-08-23T00:27:17.863Z,73.21
2022-08-23T00:29:50.133Z,74.63
2022-08-23T00:32:25.954Z,74.79
2022-08-23T00:34:55.571Z,73.61
2022-08-23T00:37:25.399Z,72.67
2022-08-23T00:39:54.783Z,71.23
2022-08-23T00:42:49.535Z,72.00
2022-08-23T00:45:39.610Z,73.02
2022-08-23T00:48:09.248Z,72.06
2022-08-23T00:50:47.634Z,72.28
2022-08-23T00:53:22.992Z,72.62
2022-08-23T00:55:55.530Z,71.21
2022-08-23T00:58:24.064Z,70.00
2022-08-23T01:00:55.400Z,70.13
2022-08-23T01:03:27.337Z,72.69
2022-08-23T01:06:02.684Z,71.31
2022-08-23T01:08:33.417Z,69.89
2022-08-23T01:11:11.676Z,69.73
2022-08-23T01:13:52.628Z,69.23
2022-08-23T01:16:32.377Z,69.97
2022-08-23T01:19:02.741Z,69.98
2022-08-23T01:21:41.594Z,71.08
2022-08-23T01:24:19.183Z,70.69
2022-08-23T01:26:45.501Z,72.08
2022-08-23T01:29:16.908Z,72.65
2022-08-23T01:31:46.388Z,73.11
2022-08-23T01:34:17.799Z,72.79
2022-08-23T01:36:48.370Z,73.31
2022-08-23T01:39:17.807Z,73.56
2022-08-23T01:41:47.273Z,76.15
2022-08-23T01:44:16.642Z,75.37
2022-08-23T01:46:47.548Z,74.90
2022-08-23T01:49:17.119Z,76.01
2022-08-23T01:51:46.863Z,76.49
2022-08-23T01:54:16.304Z,77.03
2022-08-23T01:56:46.810Z,76.51
2022-08-23T01:59:16.895Z,77.48
2022-08-23T02:01:48.208Z,76.10
2022-08-23T02:04:18.484Z,76.13
2022-08-23T02:06:48.521Z,74.93
2022-08-23T02:09:25.733Z,75.68
2022-08-23T02:11:56.365Z,75.36
2022-08-23T02:14:26.530Z,75.47
2022-08-23T02:17:04.541Z,75.42
2022-08-23T02:19:29.978Z,75.21
2022-08-23T02:21:59.332Z,77.48
2022-08-23T02:24:28.941Z,78.36
2022-08-23T02:27:01.983Z,79.26
2022-08-23T02:29:33.118Z,79.19
2022-08-23T02:32:04.354Z,80.29
2022-08-23T02:34:33.722Z,79.76
2022-08-23T02:37:03.060Z,79.66
2022-08-23T02:39:33.088Z,80.33
2022-08-23T02:42:03.090Z,80.14
2022-08-23T02:44:34.934Z,80.94
2022-08-23T02:47:06.533Z,81.40
2022-08-23T02:49:37.152Z,81.87
2022-08-23T02:52:08.024Z,82.17
2022-08-23T02:54:38.468Z,81.50
2022-08-23T02:57:07.889Z,81.89
2022-08-23T02:59:37.325Z,82.13
2022-08-23T03:02:07.435Z,83.09
2022-08-23T03:04:38.757Z,82.54
2022-08-23T03:07:08.181Z,81.73
2022-08-23T03:09:38.368Z,82.55
2022-08-23T03:12:08.002Z,82.18
2022-08-23T03:14:38.457Z,82.62
2022-08-23T03:17:08.019Z,83.98
2022-08-23T03:19:37.460Z,83.19
2022-08-23T03:22:08.568Z,83.05
2022-08-23T03:24:38.992Z,83.18
2022-08-23T03:27:08.874Z,83.01
2022-08-23T03:29:40.018Z,83.16
2022-08-23T03:32:09.506Z,83.27
2022-08-23T03:34:40.227Z,82.28
2022-08-23T03:37:13.159Z,81.75
2022-08-23T03:39:42.872Z,82.11
2022-08-23T03:42:12.293Z,81.84
2022-08-23T03:44:41.814Z,81.65
2022-08-23T03:47:11.315Z,81.76
2022-08-23T03:49:41.781Z,81.40
2022-08-23T03:52:11.667Z,80.59
2022-08-23T03:54:42.171Z,79.92
2022-08-23T03:57:12.595Z,79.92
2022-08-23T03:59:42.932Z,80.20
2022-08-23T04:02:13.806Z,80.87
2022-08-23T04:04:43.380Z,81.79
2022-08-23T04:07:32.490Z,82.19
2022-08-23T04:10:01.936Z,83.59
2022-08-23T04:12:33.117Z,83.95
2022-08-23T04:15:02.947Z,83.91
2022-08-23T04:17:33.982Z,85.06
2022-08-23T04:20:05.626Z,85.07
2022-08-23T04:22:36.652Z,84.42
2022-08-23T04:25:26.132Z,83.85
2022-08-23T04:27:38.210Z,83.07
2022-08-23T04:30:08.650Z,82.97
2022-08-23T04:32:39.742Z,83.55
2022-08-23T04:35:10.370Z,82.57
2022-08-23T04:37:39.748Z,82.43
2022-08-23T04:40:28.986Z,82.14
2022-08-23T04:42:58.674Z,81.77
2022-08-23T04:45:28.648Z,81.52
2022-08-23T04:47:59.410Z,79.61
2022-08-23T04:50:30.597Z,78.96
2022-08-23T04:53:11.879Z,78.77
2022-08-23T04:55:43.068Z,78.68
2022-08-23T04:58:12.588Z,80.69
2022-08-23T05:00:51.303Z,80.99
2022-08-23T05:03:19.971Z,82.29
2022-08-23T05:05:51.090Z,82.52
2022-08-23T05:08:22.175Z,84.15
2022-08-23T05:10:51.661Z,83.84
2022-08-23T05:13:22.428Z,82.97
2022-08-23T05:15:52.967Z,82.63
2022-08-23T05:18:24.417Z,82.11
2022-08-23T05:20:54.914Z,82.40
2022-08-23T05:23:31.882Z,82.46
2022-08-23T05:26:01.937Z,82.88
2022-08-23T05:28:37.565Z,83.91
2022-08-23T05:31:15.786Z,84.22
2022-08-23T05:33:46.847Z,84.64
2022-08-23T05:36:18.739Z,86.06
2022-08-23T05:38:49.114Z,85.59
2022-08-23T05:41:19.267Z,85.61
2022-08-23T05:43:50.940Z,85.41
2022-08-23T05:46:26.638Z,85.38
2022-08-23T05:48:55.519Z,85.22
2022-08-23T05:51:28.012Z,84.62
2022-08-23T05:53:59.702Z,84.00
2022-08-23T05:56:32.024Z,81.38
2022-08-23T05:59:04.138Z,76.04
2022-08-23T06:01:34.055Z,72.74
2022-08-23T06:04:07.417Z,65.53
2022-08-23T06:06:37.885Z,63.39
2022-08-23T06:09:10.313Z,64.68
2022-08-23T06:11:40.485Z,64.29
2022-08-23T06:14:10.552Z,65.05
2022-08-23T06:16:43.743Z,67.72
2022-08-23T06:19:15.161Z,67.72
2022-08-23T06:21:52.778Z,66.44
2022-08-23T06:24:33.349Z,66.53
2022-08-23T06:27:16.593Z,66.60
2022-08-23T06:29:46.246Z,67.04
2022-08-23T06:32:35.588Z,67.70
2022-08-23T06:35:38.472Z,68.87
2022-08-23T06:37:56.793Z,69.50
2022-08-23T06:40:44.483Z,70.35
2022-08-23T06:43:15.670Z,70.70
2022-08-23T06:45:55.076Z,71.32
2022-08-23T06:48:21.501Z,71.07
2022-08-23T06:50:50.750Z,70.62
2022-08-23T06:53:30.684Z,69.64
2022-08-23T06:56:02.409Z,68.26
2022-08-23T06:58:52.330Z,67.77
2022-08-23T07:01:45.761Z,67.30
2022-08-23T07:04:10.304Z,66.84
2022-08-23T07:06:47.568Z,65.93
2022-08-23T07:09:18.906Z,65.94
2022-08-23T07:11:48.482Z,66.02
2022-08-23T07:14:21.321Z,65.92
2022-08-23T07:16:53.612Z,65.83
2022-08-23T07:19:29.052Z,67.97
2022-08-23T07:21:57.651Z,67.36
2022-08-23T07:24:32.333Z,67.70
2022-08-23T07:26:58.676Z,66.57
2022-08-23T07:29:28.119Z,66.08
2022-08-23T07:31:58.332Z,65.35
2022-08-23T07:34:27.900Z,66.16
2022-08-23T07:36:57.342Z,65.62
2022-08-23T07:39:26.937Z,66.31
2022-08-23T07:41:57.106Z,66.28
2022-08-23T07:44:27.158Z,65.69
2022-08-23T07:46:57.041Z,65.71
2022-08-23T07:49:29.403Z,66.12
2022-08-23T07:52:00.549Z,65.96
2022-08-23T07:54:30.155Z,66.22
2022-08-23T07:57:13.094Z,65.73
2022-08-23T08:00:00.483Z,65.17
2022-08-23T08:02:43.450Z,64.33
2022-08-23T08:05:17.335Z,63.09
2022-08-23T08:07:46.404Z,62.96
2022-08-23T08:10:16.253Z,64.10
2022-08-23T08:12:45.591Z,65.13
2022-08-23T08:15:17.285Z,65.32
2022-08-23T08:17:49.825Z,65.80
2022-08-23T08:20:21.854Z,65.52
2022-08-23T08:22:58.343Z,64.91
2022-08-23T08:25:33.053Z,63.43
2022-08-23T08:28:04.169Z,63.14
2022-08-23T08:30:33.605Z,63.24
2022-08-23T08:33:04.466Z,63.50
2022-08-23T08:35:34.076Z,63.84
2022-08-23T08:38:04.486Z,63.44
2022-08-23T08:40:36.072Z,63.22
2022-08-23T08:43:25.021Z,62.72
2022-08-23T08:46:06.506Z,64.19
2022-08-23T08:48:42.779Z,63.02
2022-08-23T08:51:21.083Z,62.94
2022-08-23T08:53:51.603Z,63.49
2022-08-23T08:56:36.355Z,63.26
2022-08-23T08:59:10.995Z,63.22
2022-08-23T09:01:40.427Z,61.54
2022-08-23T09:04:10.277Z,61.07
2022-08-23T09:06:59.150Z,60.33
2022-08-23T09:09:46.764Z,58.12
2022-08-23T09:12:31.519Z,54.68
2022-08-23T09:15:28.852Z,51.99
2022-08-23T09:18:01.744Z,52.24
2022-08-23T09:20:33.311Z,52.24
2022-08-23T09:23:08.850Z,51.56
2022-08-23T09:25:39.225Z,50.88
2022-08-23T09:28:15.022Z,50.50
2022-08-23T09:30:54.914Z,52.35
2022-08-23T09:33:27.834Z,52.09
2022-08-23T09:36:17.448Z,50.17
2022-08-23T09:39:00.118Z,50.69
2022-08-23T09:41:36.829Z,49.68
2022-08-23T09:44:13.634Z,48.72
2022-08-23T09:46:43.740Z,45.85
2022-08-23T09:49:29.952Z,47.51
2022-08-23T09:52:03.865Z,48.62
2022-08-23T09:54:37.166Z,46.78
2022-08-23T09:57:13.961Z,43.26
2022-08-23T09:59:50.402Z,43.95
2022-08-23T10:02:35.383Z,40.94
2022-08-23T10:05:18.350Z,43.32
2022-08-23T10:08:02.918Z,42.81
2022-08-23T10:10:36.696Z,41.31
2022-08-23T10:13:07.782Z,37.14
2022-08-23T10:16:11.121Z,35.44
2022-08-23T10:19:05.415Z,35.99
2022-08-23T10:21:47.747Z,35.68
2022-08-23T10:24:29.002Z,34.91
2022-08-23T10:27:11.324Z,31.44
2022-08-23T10:29:43.719Z,31.17
2022-08-23T10:32:27.879Z,31.43
2022-08-23T10:35:25.916Z,31.49
2022-08-23T10:38:32.993Z,33.87
2022-08-23T10:41:23.483Z,32.79
2022-08-23T10:44:11.763Z,34.80
2022-08-23T10:46:44.406Z,32.70
2022-08-23T10:49:14.785Z,31.55
2022-08-23T10:51:47.053Z,30.09
2022-08-23T10:54:21.772Z,29.30
2022-08-23T10:56:53.145Z,30.07
2022-08-23T10:59:24.497Z,30.75
2022-08-23T11:02:20.056Z,30.70
2022-08-23T11:05:10.240Z,29.64
2022-08-23T11:07:42.794Z,31.39
2022-08-23T11:10:40.491Z,35.27
2022-08-23T11:13:18.954Z,35.83
2022-08-23T11:15:58.929Z,39.04
2022-08-23T11:18:49.132Z,36.88
2022-08-23T11:21:33.642Z,34.61
2022-08-23T11:24:07.884Z,37.76
2022-08-23T11:26:44.706Z,37.13
2022-08-23T11:29:28.655Z,34.96
2022-08-23T11:32:08.627Z,34.52
2022-08-23T11:34:46.760Z,33.24
2022-08-23T11:37:24.139Z,35.31
2022-08-23T11:40:04.510Z,34.08
2022-08-23T11:42:44.575Z,38.19
2022-08-23T11:45:33.440Z,36.88
2022-08-23T11:48:14.673Z,34.33
2022-08-23T11:51:05.316Z,34.15
2022-08-23T11:53:57.113Z,38.67
2022-08-23T11:56:45.625Z,38.36
2022-08-23T11:59:35.076Z,38.40
2022-08-23T12:02:35.002Z,40.17
2022-08-23T12:05:08.694Z,38.04
2022-08-23T12:07:50.049Z,35.31
2022-08-23T12:10:25.083Z,38.92
2022-08-23T12:13:23.389Z,40.17
2022-08-23T12:16:16.916Z,42.51
2022-08-23T12:18:54.128Z,42.58
2022-08-23T12:21:44.104Z,43.62
2022-08-23T12:24:16.791Z,44.80
2022-08-23T12:27:01.354Z,45.28
2022-08-23T12:30:01.313Z,41.51
2022-08-23T12:32:59.323Z,40.23
2022-08-23T12:35:32.040Z,40.42
2022-08-23T12:38:10.722Z,39.30
2022-08-23T12:40:43.625Z,38.52
2022-08-23T12:43:22.226Z,35.71
2022-08-23T12:45:53.946Z,34.58
2022-08-23T12:48:26.429Z,36.00
2022-08-23T12:50:59.025Z,38.61
2022-08-23T12:53:31.620Z,34.04
2022-08-23T12:56:06.964Z,35.16
2022-08-23T12:58:38.210Z,35.43
2022-08-23T13:01:10.860Z,34.24
2022-08-23T13:03:44.321Z,35.74
2022-08-23T13:06:16.089Z,37.64
2022-08-23T13:09:10.627Z,38.82
2022-08-23T13:11:40.411Z,40.41
2022-08-23T13:14:31.086Z,41.97
2022-08-23T13:17:15.465Z,40.28
2022-08-23T13:19:45.990Z,37.41
2022-08-23T13:22:25.007Z,37.58
2022-08-23T13:27:49.980Z,38.40
2022-08-23T13:30:25.395Z,42.38
2022-08-23T13:33:07.821Z,44.73
2022-08-23T13:35:39.252Z,45.37
2022-08-23T13:38:21.403Z,44.85
2022-08-23T13:41:00.734Z,44.45
2022-08-23T13:43:33.321Z,42.56
2022-08-23T13:46:23.391Z,42.41
2022-08-23T13:49:08.130Z,43.32
2022-08-23T13:51:46.409Z,44.54
2022-08-23T13:54:16.770Z,44.90
2022-08-23T13:56:49.316Z,46.29
2022-08-23T13:59:31.711Z,45.29
2022-08-23T14:02:00.062Z,44.41
2022-08-23T14:04:29.386Z,45.41
2022-08-23T14:06:58.826Z,42.97
2022-08-23T14:09:28.159Z,43.98
2022-08-23T14:11:59.655Z,43.22
2022-08-23T14:14:32.118Z,42.90
2022-08-23T14:17:03.031Z,44.40
2022-08-23T14:22:04.244Z,44.81
2022-08-23T14:24:33.582Z,43.24
2022-08-23T14:27:03.243Z,43.31
2022-08-23T14:29:32.499Z,42.15
2022-08-23T14:32:01.952Z,41.72
2022-08-23T14:34:31.857Z,42.72
2022-08-23T14:39:32.435Z,43.45
2022-08-23T14:42:01.798Z,42.35
2022-08-23T14:44:35.894Z,44.00
2022-08-23T14:47:02.368Z,43.49
2022-08-23T14:49:31.617Z,42.95
2022-08-23T14:52:01.058Z,45.02
2022-08-23T14:54:30.278Z,42.90
2022-08-23T14:56:59.947Z,44.76
2022-08-23T14:59:29.303Z,44.71
2022-08-23T15:01:59.700Z,44.34
2022-08-23T15:04:34.430Z,44.25
2022-08-23T15:07:17.141Z,44.93
2022-08-23T15:09:31.283Z,49.65
2022-08-23T15:14:31.722Z,45.95
2022-08-23T15:17:03.276Z,43.87
2022-08-23T15:19:32.660Z,43.28
2022-08-23T15:22:06.554Z,42.57
2022-08-23T15:24:33.297Z,43.22
2022-08-23T15:27:04.198Z,43.73
2022-08-23T15:29:33.630Z,43.89
2022-08-23T15:32:02.892Z,44.02
2022-08-23T15:34:33.274Z,44.38
2022-08-23T15:37:04.000Z,45.80
2022-08-23T15:39:33.283Z,46.71
2022-08-23T15:42:02.766Z,46.30
2022-08-23T15:44:32.026Z,47.38
2022-08-23T15:47:01.406Z,47.09
2022-08-23T15:49:35.992Z,47.25
2022-08-23T15:52:03.672Z,48.65
2022-08-23T15:54:33.545Z,49.62
2022-08-23T15:57:02.880Z,50.32
2022-08-23T15:59:33.311Z,51.07
2022-08-23T16:02:02.985Z,51.00
2022-08-23T16:04:35.541Z,51.00
2022-08-23T16:07:07.429Z,52.95
2022-08-23T16:09:37.800Z,52.63
2022-08-23T16:12:08.303Z,51.63
2022-08-23T16:14:38.522Z,55.27
2022-08-23T16:17:08.756Z,52.80
2022-08-23T16:19:38.074Z,54.84
2022-08-23T16:22:07.344Z,53.43
2022-08-23T16:24:36.668Z,52.14
2022-08-23T16:27:07.185Z,54.38
2022-08-23T16:29:36.969Z,54.41
2022-08-23T16:32:07.477Z,53.96
2022-08-23T16:34:37.310Z,55.91
2022-08-23T16:37:09.615Z,54.84
2022-08-23T16:39:39.177Z,55.06
2022-08-23T16:42:08.721Z,55.22
2022-08-23T16:44:38.632Z,54.74
2022-08-23T16:47:09.887Z,53.64
2022-08-23T16:49:40.044Z,53.77
2022-08-23T16:52:10.650Z,53.88
2022-08-23T16:54:40.199Z,54.52
2022-08-23T16:57:09.557Z,53.43
2022-08-23T16:59:40.669Z,51.00
2022-08-23T17:02:11.687Z,51.78
2022-08-23T17:04:41.006Z,50.65
2022-08-23T17:07:10.267Z,51.59
2022-08-23T17:09:39.558Z,52.94
2022-08-23T17:12:09.154Z,54.01
2022-08-23T17:14:38.420Z,55.62
2022-08-23T17:17:07.929Z,54.47
2022-08-23T17:19:37.183Z,55.80
2022-08-23T17:22:06.514Z,57.08
2022-08-23T17:24:35.831Z,57.51
2022-08-23T17:27:06.053Z,58.32
2022-08-23T17:29:37.553Z,57.45
2022-08-23T17:32:07.446Z,58.49
2022-08-23T17:34:36.838Z,59.16
2022-08-23T17:37:07.738Z,58.33
2022-08-23T17:39:38.666Z,57.31
2022-08-23T17:42:09.919Z,59.92
2022-08-23T17:44:39.724Z,60.57
2022-08-23T17:47:12.334Z,59.48
2022-08-23T17:49:41.988Z,60.10
2022-08-23T17:52:12.357Z,63.20
2022-08-23T17:54:42.469Z,63.20
2022-08-23T17:57:13.372Z,65.03
2022-08-23T17:59:43.170Z,65.85
2022-08-23T18:02:12.618Z,66.44
2022-08-23T18:04:42.222Z,66.87
2022-08-23T18:07:11.864Z,66.69
2022-08-23T18:09:43.830Z,67.01
2022-08-23T18:12:12.224Z,67.58
2022-08-23T18:14:41.573Z,68.42
2022-08-23T18:17:11.017Z,68.68
2022-08-23T18:19:40.326Z,69.41
2022-08-23T18:22:09.967Z,69.01
2022-08-23T18:24:39.347Z,68.64
2022-08-23T18:27:27.055Z,68.89
2022-08-23T18:29:56.755Z,69.71
2022-08-23T18:32:26.649Z,70.06
2022-08-23T18:34:56.098Z,70.41
2022-08-23T18:37:25.633Z,70.48
2022-08-23T18:39:55.047Z,72.01
2022-08-23T18:42:24.784Z,71.87
2022-08-23T18:44:54.265Z,72.31
2022-08-23T18:47:23.765Z,72.55
2022-08-23T18:49:53.151Z,73.24
2022-08-23T18:52:22.686Z,73.32
2022-08-23T18:54:52.045Z,73.79
2022-08-23T18:57:21.518Z,74.18
2022-08-23T18:59:51.417Z,74.87
2022-08-23T19:02:21.880Z,75.22
2022-08-23T19:04:53.386Z,76.10
2022-08-23T19:07:23.136Z,76.11
2022-08-23T19:09:52.693Z,76.64
2022-08-23T19:12:22.059Z,77.58
2022-08-23T19:14:51.597Z,78.09
2022-08-23T19:17:21.176Z,78.22
2022-08-23T19:19:50.983Z,78.42
2022-08-23T19:22:20.387Z,78.62
2022-08-23T19:24:49.923Z,78.47
2022-08-23T19:27:19.423Z,79.90
2022-08-23T19:29:48.811Z,80.19
2022-08-23T19:32:18.543Z,80.30
2022-08-23T19:34:48.061Z,81.29
2022-08-23T19:37:22.623Z,81.52
2022-08-23T19:39:49.023Z,81.34
2022-08-23T19:42:19.655Z,81.69
2022-08-23T19:44:49.673Z,82.14
2022-08-23T19:47:21.617Z,82.28
2022-08-23T19:49:50.553Z,82.75
2022-08-23T19:52:19.890Z,82.82
2022-08-23T19:54:49.816Z,82.34
2022-08-23T19:57:19.287Z,82.31
2022-08-23T19:59:48.697Z,83.06
2022-08-23T20:02:18.308Z,83.66
2022-08-23T20:04:47.915Z,84.25
2022-08-23T20:07:17.631Z,85.47
2022-08-23T20:09:47.054Z,86.32
2022-08-23T20:12:17.372Z,86.98
2022-08-23T20:14:49.150Z,87.42
2022-08-23T20:17:18.418Z,87.90
2022-08-23T20:19:47.964Z,88.25
2022-08-23T20:22:34.986Z,88.00
2022-08-23T20:25:06.799Z,88.14
2022-08-23T20:27:38.689Z,88.35
2022-08-23T20:30:09.239Z,88.33
2022-08-23T20:32:38.897Z,88.86
2022-08-23T20:35:09.691Z,90.36
2022-08-23T20:37:40.102Z,90.68
2022-08-23T20:40:10.574Z,90.32
2022-08-23T20:42:40.592Z,91.54
2022-08-23T20:45:10.307Z,91.53
2022-08-23T20:47:41.372Z,91.62
2022-08-23T20:50:10.789Z,90.60
2022-08-23T20:52:40.127Z,90.24
2022-08-23T20:55:11.018Z,91.13
2022-08-23T20:57:40.564Z,92.18
2022-08-23T21:00:12.771Z,93.27
2022-08-23T21:02:42.175Z,93.84
2022-08-23T21:05:11.606Z,93.97
2022-08-23T21:07:41.158Z,93.37
2022-08-23T21:10:11.657Z,94.23
2022-08-23T21:12:41.078Z,94.66
2022-08-23T21:15:12.579Z,94.97
2022-08-23T21:17:41.842Z,94.88
2022-08-23T21:20:11.796Z,94.62
2022-08-23T21:22:41.512Z,95.58
2022-08-23T21:25:10.910Z,96.34
2022-08-23T21:27:40.387Z,97.07
2022-08-23T21:30:11.022Z,97.03
2022-08-23T21:32:40.404Z,96.83
2022-08-23T21:35:10.821Z,96.57
2022-08-23T21:37:40.322Z,96.50
2022-08-23T21:40:10.898Z,96.05
2022-08-23T21:42:40.327Z,96.24
2022-08-23T21:45:10.098Z,96.05
2022-08-23T21:47:39.556Z,95.47
2022-08-23T21:50:09.153Z,95.11
2022-08-23T21:52:38.718Z,94.56
2022-08-23T21:55:08.713Z,93.80
2022-08-23T21:57:38.069Z,94.18
2022-08-23T22:00:11.839Z,95.06
2022-08-23T22:02:42.488Z,96.30
2022-08-23T22:05:13.207Z,97.28
2022-08-23T22:07:42.585Z,95.95
2022-08-23T22:10:12.290Z,95.70
2022-08-23T22:12:43.012Z,96.70
2022-08-23T22:15:13.021Z,97.35
2022-08-23T22:17:42.506Z,96.34
2022-08-23T22:20:13.634Z,95.20
2022-08-23T22:22:43.735Z,94.71
2022-08-23T22:25:13.889Z,94.11
2022-08-23T22:27:43.207Z,94.96
2022-08-23T22:30:13.910Z,95.12
2022-08-23T22:32:44.239Z,94.75
2022-08-23T22:35:14.445Z,93.88
2022-08-23T22:38:10.191Z,91.48
2022-08-23T22:40:18.974Z,91.83
2022-08-23T22:42:49.020Z,93.36
2022-08-23T22:45:19.154Z,94.22
2022-08-23T22:47:49.110Z,96.18
2022-08-23T22:50:18.537Z,96.53
2022-08-23T22:52:48.444Z,95.71
2022-08-23T22:55:17.735Z,95.43
2022-08-23T22:57:47.587Z,96.33
2022-08-23T23:00:17.212Z,98.08
2022-08-23T23:02:46.722Z,99.05
2022-08-23T23:05:16.050Z,97.79
2022-08-23T23:07:47.027Z,95.93
2022-08-23T23:10:17.115Z,95.73
2022-08-23T23:12:46.428Z,95.57
2022-08-23T23:15:16.044Z,95.11
2022-08-23T23:17:45.286Z,95.84
2022-08-23T23:20:32.792Z,97.01
2022-08-23T23:23:02.060Z,99.65
2022-08-23T23:25:31.510Z,99.45
2022-08-23T23:28:02.900Z,100.00
2022-08-23T23:30:34.716Z,100.00
2022-08-23T23:33:04.123Z,100.00
2022-08-23T23:35:35.397Z,99.32
2022-08-23T23:38:05.688Z,97.50
2022-08-23T23:40:35.945Z,98.04
2022-08-23T23:43:05.411Z,98.79
2022-08-23T23:45:34.866Z,100.00
2022-08-23T23:48:04.634Z,99.79
2022-08-23T23:50:35.596Z,99.72
2022-08-23T23:53:05.266Z,98.09
2022-08-23T23:55:35.185Z,97.37
2022-08-23T23:58:04.680Z,97.87
